Terminal Aerodrome Forecast
Issued by NWS Wichita, KS

Home | Current Version | Previous Version | Graphics & Text | Print | Product List | Glossary On
Versions: 1 2 3 4 5 6 7 8 9 10 11 12 13 14 15 16 17 18 19 20
592
FTUS43 KICT 151958 AAA
TAFICT
TAF AMD
KICT 151958Z 1520/1618 15012KT P6SM VCSH SCT040 OVC150
     FM160000 15010KT P6SM VCTS SCT060CB BKN250
     FM160400 15007KT P6SM SCT100 BKN250
     FM161100 17005KT P6SM BKN070=

USA.gov is the U.S. government's official web portal to all federal, state and local government web resources and services.